Time;durP1;ratioP1;P1;durP2;ratioP2;P2;SDS_P1;SDS_P2;PMS_P1;PMS_P2;Temp;Humidity;BMP_temperature;BMP_pressure;BME280_temperature;BME280_humidity;BME280_pressure;Samples;Min_cycle;Max_cycle;Signal;HPM_P1;HPM_P2
2023/05/08 00:00:27;;;;;;;;;;;13.10;99.90;;;;;;5018620;28;20326;-79
2023/05/08 00:02:54;;;;;;;;;;;13.10;99.90;;;;;;5018106;28;20423;-79
2023/05/08 00:05:21;;;;;;;;;;;13.00;99.90;;;;;;5014157;28;19926;-79
2023/05/08 00:07:51;;;;;;;;;;;13.00;99.90;;;;;;5018539;28;20026;-80
2023/05/08 00:10:17;;;;;;;;;;;12.90;99.90;;;;;;5018869;28;20699;-80
2023/05/08 00:12:44;;;;;;;;;;;12.80;99.90;;;;;;5035195;28;20292;-79
2023/05/08 00:15:11;;;;;;;;;;;12.80;99.90;;;;;;5017396;28;19975;-79
2023/05/08 00:17:38;;;;;;;;;;;12.70;99.90;;;;;;5017304;28;19977;-78
2023/05/08 00:20:07;;;;;;;;;;;12.70;99.90;;;;;;5017827;28;19932;-79
2023/05/08 00:22:34;;;;;;;;;;;12.60;99.90;;;;;;5019207;28;20313;-79
2023/05/08 00:25:02;;;;;;;;;;;12.60;99.90;;;;;;5019433;28;19925;-78
2023/05/08 00:27:28;;;;;;;;;;;12.60;99.90;;;;;;5021265;28;20503;-78
2023/05/08 00:29:56;;;;;;;;;;;12.50;99.90;;;;;;5021813;28;19921;-78
2023/05/08 00:32:23;;;;;;;;;;;12.50;99.90;;;;;;5021715;28;20506;-78
2023/05/08 00:34:50;;;;;;;;;;;12.40;99.90;;;;;;5017483;28;19928;-78
2023/05/08 00:37:17;;;;;;;;;;;12.40;99.90;;;;;;5017366;28;19921;-77
2023/05/08 00:39:43;;;;;;;;;;;12.40;99.90;;;;;;5018091;28;19925;-79
2023/05/08 00:42:10;;;;;;;;;;;12.40;99.90;;;;;;5017841;28;20011;-79
2023/05/08 00:44:38;;;;;;;;;;;12.40;99.90;;;;;;5022077;28;19932;-78
2023/05/08 00:47:06;;;;;;;;;;;12.30;99.90;;;;;;5022653;28;19932;-78
2023/05/08 00:49:34;;;;;;;;;;;12.30;99.90;;;;;;5019249;28;20694;-78
2023/05/08 00:52:01;;;;;;;;;;;12.20;99.90;;;;;;5019038;28;19925;-78
2023/05/08 00:54:28;;;;;;;;;;;12.20;99.90;;;;;;5021562;28;20381;-79
2023/05/08 00:56:55;;;;;;;;;;;12.20;99.90;;;;;;5020133;28;19925;-79
2023/05/08 00:59:22;;;;;;;;;;;12.20;99.90;;;;;;5037044;28;20031;-78
2023/05/08 01:01:49;;;;;;;;;;;12.20;99.90;;;;;;5016699;28;19925;-78
2023/05/08 01:04:16;;;;;;;;;;;12.20;99.90;;;;;;5001814;28;20315;-80
2023/05/08 01:06:42;;;;;;;;;;;12.10;99.90;;;;;;5016977;28;20271;-78
2023/05/08 01:09:10;;;;;;;;;;;12.10;99.90;;;;;;5018135;28;19941;-78
2023/05/08 01:11:47;;;;;;;;;;;12.10;99.90;;;;;;5017254;28;20460;-78
2023/05/08 01:14:24;;;;;;;;;;;12.10;99.90;;;;;;5018518;28;20040;-78
2023/05/08 01:16:56;;;;;;;;;;;12.10;99.90;;;;;;5020983;28;20400;-78
2023/05/08 01:19:31;;;;;;;;;;;12.10;99.90;;;;;;5022044;28;19925;-78
2023/05/08 01:22:21;;;;;;;;;;;12.10;99.90;;;;;;5020795;28;19932;-78
2023/05/08 01:24:54;;;;;;;;;;;12.10;99.90;;;;;;5021138;28;20257;-78
2023/05/08 01:27:21;;;;;;;;;;;12.00;99.90;;;;;;5022657;28;20333;-79
2023/05/08 01:29:50;;;;;;;;;;;12.00;99.90;;;;;;5021478;28;20426;-79
2023/05/08 01:32:17;;;;;;;;;;;12.00;99.90;;;;;;5020631;28;19921;-78
2023/05/08 01:34:59;;;;;;;;;;;11.90;99.90;;;;;;5023996;28;20384;-78
2023/05/08 01:37:31;;;;;;;;;;;11.90;99.90;;;;;;5004474;28;20297;-78
2023/05/08 01:40:17;;;;;;;;;;;11.90;99.90;;;;;;5004593;28;19948;-79
2023/05/08 01:42:48;;;;;;;;;;;11.90;99.90;;;;;;5015321;28;20271;-78
2023/05/08 01:45:31;;;;;;;;;;;11.90;99.90;;;;;;5024630;28;20140;-78
2023/05/08 01:48:05;;;;;;;;;;;11.90;99.90;;;;;;5024010;28;19920;-78
2023/05/08 01:50:33;;;;;;;;;;;11.80;99.90;;;;;;5035382;28;19932;-79
2023/05/08 01:53:12;;;;;;;;;;;11.80;99.90;;;;;;5005933;28;19921;-78
2023/05/08 01:55:38;;;;;;;;;;;11.80;99.90;;;;;;5020211;28;20032;-77
2023/05/08 01:58:06;;;;;;;;;;;11.80;99.90;;;;;;5020361;28;20369;-79
2023/05/08 02:00:33;;;;;;;;;;;11.70;99.90;;;;;;5020725;28;20376;-78
2023/05/08 02:03:00;;;;;;;;;;;11.70;99.90;;;;;;5028021;28;19921;-79
2023/05/08 02:05:27;;;;;;;;;;;11.60;99.90;;;;;;5024753;28;19988;-81
2023/05/08 02:07:53;;;;;;;;;;;11.60;99.90;;;;;;5024400;28;20007;-78
2023/05/08 02:10:21;;;;;;;;;;;11.60;99.90;;;;;;5023493;28;19944;-79
2023/05/08 02:12:47;;;;;;;;;;;11.50;99.90;;;;;;5022988;28;20317;-78
2023/05/08 02:15:15;;;;;;;;;;;11.50;99.90;;;;;;5022122;28;19995;-78
2023/05/08 02:17:42;;;;;;;;;;;11.50;99.90;;;;;;5022841;28;20020;-78
2023/05/08 02:20:13;;;;;;;;;;;11.40;99.90;;;;;;5021887;28;19929;-78
2023/05/08 02:22:41;;;;;;;;;;;11.40;99.90;;;;;;5023220;28;19932;-78
2023/05/08 02:25:08;;;;;;;;;;;11.40;99.90;;;;;;5020620;28;19999;-78
2023/05/08 02:27:35;;;;;;;;;;;11.40;99.90;;;;;;5024632;28;19927;-78
2023/05/08 02:30:01;;;;;;;;;;;11.30;99.90;;;;;;5024247;28;19921;-78
2023/05/08 02:32:28;;;;;;;;;;;11.30;99.90;;;;;;5023980;28;19921;-79
2023/05/08 02:34:55;;;;;;;;;;;11.20;99.90;;;;;;5018888;28;20015;-79
2023/05/08 02:37:29;;;;;;;;;;;11.20;99.90;;;;;;5018314;28;19921;-78
2023/05/08 02:39:55;;;;;;;;;;;11.20;99.90;;;;;;5018614;28;20138;-78
2023/05/08 02:42:22;;;;;;;;;;;11.10;99.90;;;;;;5020130;28;19921;-78
2023/05/08 02:44:49;;;;;;;;;;;11.10;99.90;;;;;;5019432;28;19921;-78
2023/05/08 02:47:15;;;;;;;;;;;11.00;99.90;;;;;;5022698;28;19929;-78
2023/05/08 02:49:44;;;;;;;;;;;11.00;99.90;;;;;;5024103;28;20337;-78
2023/05/08 02:52:17;;;;;;;;;;;10.90;99.90;;;;;;5039136;28;19925;-79
2023/05/08 02:55:03;;;;;;;;;;;10.90;99.90;;;;;;5023826;28;19932;-78
2023/05/08 02:57:38;;;;;;;;;;;10.90;99.90;;;;;;5023145;28;20320;-79
2023/05/08 03:00:08;;;;;;;;;;;10.80;99.90;;;;;;5022669;28;20020;-78
2023/05/08 03:03:05;;;;;;;;;;;10.90;99.90;;;;;;5022406;28;20439;-79
2023/05/08 03:05:32;;;;;;;;;;;10.90;99.90;;;;;;5003792;28;20301;-78
2023/05/08 03:07:59;;;;;;;;;;;10.90;99.90;;;;;;5022789;28;19921;-78
2023/05/08 03:10:27;;;;;;;;;;;10.80;99.90;;;;;;5022925;28;20078;-78
2023/05/08 03:12:53;;;;;;;;;;;10.80;99.90;;;;;;5023167;28;19932;-78
2023/05/08 03:15:22;;;;;;;;;;;10.80;99.90;;;;;;5022284;28;20373;-78
2023/05/08 03:17:51;;;;;;;;;;;10.80;99.90;;;;;;5022355;28;20002;-78
2023/05/08 03:20:18;;;;;;;;;;;10.80;99.90;;;;;;5022057;28;19925;-78
2023/05/08 03:22:44;;;;;;;;;;;10.80;99.90;;;;;;5023173;28;20348;-78
2023/05/08 03:25:12;;;;;;;;;;;10.80;99.90;;;;;;5022225;28;20032;-78
2023/05/08 03:27:39;;;;;;;;;;;10.70;99.90;;;;;;5022311;28;20322;-78
2023/05/08 03:30:06;;;;;;;;;;;10.60;99.90;;;;;;5022354;28;19921;-78
2023/05/08 03:32:33;;;;;;;;;;;10.60;99.90;;;;;;5022631;28;20019;-78
2023/05/08 03:34:59;;;;;;;;;;;10.60;99.90;;;;;;5023309;28;20396;-78
2023/05/08 03:37:27;;;;;;;;;;;10.60;99.90;;;;;;5039288;28;19943;-78
2023/05/08 03:39:57;;;;;;;;;;;10.60;99.90;;;;;;5022389;28;19921;-78
2023/05/08 03:42:24;;;;;;;;;;;10.60;99.90;;;;;;5022683;28;20015;-78
2023/05/08 03:44:50;;;;;;;;;;;10.60;99.90;;;;;;5039419;28;20028;-79
2023/05/08 03:47:17;;;;;;;;;;;10.50;99.90;;;;;;5023000;28;19925;-78
2023/05/08 03:49:44;;;;;;;;;;;10.60;99.90;;;;;;5005944;28;19925;-78
2023/05/08 03:52:11;;;;;;;;;;;10.60;99.90;;;;;;5025641;28;19975;-78
2023/05/08 03:54:38;;;;;;;;;;;10.60;99.90;;;;;;5026222;28;20035;-78
2023/05/08 03:57:05;;;;;;;;;;;10.60;99.90;;;;;;5025998;28;20875;-79
2023/05/08 03:59:31;;;;;;;;;;;10.50;99.90;;;;;;5026008;28;19927;-78
2023/05/08 04:02:08;;;;;;;;;;;10.50;99.90;;;;;;5027157;28;20475;-78
2023/05/08 04:04:41;;;;;;;;;;;10.50;99.90;;;;;;5026402;28;19971;-78
2023/05/08 04:07:10;;;;;;;;;;;10.50;99.90;;;;;;5025136;28;19944;-78
2023/05/08 04:09:39;;;;;;;;;;;10.50;99.90;;;;;;5027540;28;19921;-78
2023/05/08 04:12:16;;;;;;;;;;;10.40;99.90;;;;;;5025918;28;20016;-78
2023/05/08 04:14:53;;;;;;;;;;;10.50;99.90;;;;;;5042737;28;20012;-78
2023/05/08 04:17:41;;;;;;;;;;;10.60;99.90;;;;;;5011734;28;19921;-78
2023/05/08 04:20:09;;;;;;;;;;;10.50;99.90;;;;;;5024827;28;20028;-78
2023/05/08 04:22:35;;;;;;;;;;;10.60;99.90;;;;;;5026246;28;19921;-79
2023/05/08 04:25:02;;;;;;;;;;;10.50;99.90;;;;;;5025802;28;19931;-78
2023/05/08 04:27:29;;;;;;;;;;;10.50;99.90;;;;;;5025789;28;19971;-79
2023/05/08 04:29:56;;;;;;;;;;;10.50;99.90;;;;;;5026183;28;19925;-78
2023/05/08 04:32:23;;;;;;;;;;;10.50;99.90;;;;;;5041790;28;19921;-79
2023/05/08 04:34:49;;;;;;;;;;;10.60;99.90;;;;;;5041667;28;19925;-79
2023/05/08 04:37:26;;;;;;;;;;;10.60;99.90;;;;;;5024960;28;20409;-78
2023/05/08 04:39:53;;;;;;;;;;;10.60;99.90;;;;;;5025897;28;19950;-79
2023/05/08 04:42:20;;;;;;;;;;;10.60;99.90;;;;;;5025733;28;19920;-78
2023/05/08 04:44:47;;;;;;;;;;;10.60;99.90;;;;;;5025725;28;19927;-79
2023/05/08 04:47:13;;;;;;;;;;;10.60;99.90;;;;;;5025409;28;20024;-78
2023/05/08 04:49:40;;;;;;;;;;;10.70;99.90;;;;;;5024816;28;20324;-79
2023/05/08 04:52:07;;;;;;;;;;;10.70;99.90;;;;;;5025319;28;19921;-79
2023/05/08 04:54:34;;;;;;;;;;;10.70;99.90;;;;;;5025476;28;20470;-78
2023/05/08 04:57:01;;;;;;;;;;;10.80;99.90;;;;;;5025839;28;19925;-78
2023/05/08 04:59:28;;;;;;;;;;;10.80;99.90;;;;;;5025381;28;20015;-79
2023/05/08 05:01:55;;;;;;;;;;;10.80;99.90;;;;;;5023957;28;19961;-78
2023/05/08 05:04:22;;;;;;;;;;;10.90;99.90;;;;;;5014657;28;20332;-78
2023/05/08 05:06:48;;;;;;;;;;;10.90;99.90;;;;;;5016616;28;19947;-79
2023/05/08 05:09:15;;;;;;;;;;;11.00;99.90;;;;;;5020163;28;19977;-79
2023/05/08 05:11:42;;;;;;;;;;;11.00;99.90;;;;;;5004195;28;20694;-79
2023/05/08 05:14:08;;;;;;;;;;;11.00;99.90;;;;;;5021357;28;19980;-79
2023/05/08 05:16:35;;;;;;;;;;;11.10;99.90;;;;;;5017254;28;19925;-79
2023/05/08 05:19:03;;;;;;;;;;;11.20;99.90;;;;;;5020163;28;19928;-80
2023/05/08 05:21:30;;;;;;;;;;;11.20;99.90;;;;;;5018323;28;19932;-79
2023/05/08 05:23:57;;;;;;;;;;;11.30;99.90;;;;;;5019168;28;19925;-79
2023/05/08 05:26:24;;;;;;;;;;;11.40;99.90;;;;;;5017848;28;19925;-79
2023/05/08 05:28:50;;;;;;;;;;;11.50;99.90;;;;;;5020519;28;20235;-79
2023/05/08 05:31:17;;;;;;;;;;;11.60;99.90;;;;;;5020589;28;19952;-79
2023/05/08 05:33:45;;;;;;;;;;;11.60;99.90;;;;;;5018899;28;19925;-79
2023/05/08 05:36:12;;;;;;;;;;;11.70;99.90;;;;;;5019368;28;19953;-80
2023/05/08 05:38:38;;;;;;;;;;;11.80;99.90;;;;;;5018111;28;19987;-79
2023/05/08 05:41:05;;;;;;;;;;;11.90;99.90;;;;;;5017264;28;19930;-79
2023/05/08 05:43:32;;;;;;;;;;;11.90;99.90;;;;;;5018378;28;20016;-79
2023/05/08 05:46:05;;;;;;;;;;;12.00;99.90;;;;;;5016281;28;19929;-79
2023/05/08 05:48:32;;;;;;;;;;;12.10;99.90;;;;;;5016109;28;19979;-79
2023/05/08 05:50:59;;;;;;;;;;;12.20;99.90;;;;;;5017137;28;19925;-79
2023/05/08 05:53:26;;;;;;;;;;;12.30;99.90;;;;;;5020758;28;19929;-79
2023/05/08 05:55:53;;;;;;;;;;;12.30;99.90;;;;;;5019329;28;19921;-79
2023/05/08 05:58:19;;;;;;;;;;;12.50;99.90;;;;;;5015586;28;19928;-79
2023/05/08 06:00:47;;;;;;;;;;;12.60;99.90;;;;;;5019056;28;19921;-79
2023/05/08 06:03:13;;;;;;;;;;;12.60;99.90;;;;;;5019318;28;20316;-80
2023/05/08 06:05:40;;;;;;;;;;;12.60;99.90;;;;;;5018429;28;19931;-80
2023/05/08 06:08:07;;;;;;;;;;;12.70;99.90;;;;;;5022416;28;19928;-80
2023/05/08 06:10:34;;;;;;;;;;;12.80;99.90;;;;;;5019578;28;19932;-80
2023/05/08 06:13:01;;;;;;;;;;;12.90;99.90;;;;;;5019336;28;19975;-79
2023/05/08 06:15:27;;;;;;;;;;;13.00;99.90;;;;;;5020945;28;19921;-79
2023/05/08 06:17:54;;;;;;;;;;;13.00;99.90;;;;;;5019431;28;19925;-79
2023/05/08 06:20:21;;;;;;;;;;;13.10;99.90;;;;;;5020950;28;19929;-79
2023/05/08 06:22:51;;;;;;;;;;;13.20;99.90;;;;;;5037362;28;20222;-79
2023/05/08 06:25:18;;;;;;;;;;;13.30;99.90;;;;;;5017239;28;20329;-78
2023/05/08 06:27:45;;;;;;;;;;;13.40;99.90;;;;;;5017851;28;19956;-78
2023/05/08 06:30:12;;;;;;;;;;;13.50;99.90;;;;;;5019709;28;20028;-79
2023/05/08 06:32:38;;;;;;;;;;;13.50;99.90;;;;;;5022391;28;20255;-78
2023/05/08 06:35:05;;;;;;;;;;;13.60;99.90;;;;;;5038526;28;19929;-80
2023/05/08 06:37:32;;;;;;;;;;;13.70;99.90;;;;;;5023065;28;19921;-78
2023/05/08 06:39:59;;;;;;;;;;;13.80;99.90;;;;;;5023909;28;19931;-78
2023/05/08 06:42:37;;;;;;;;;;;13.80;99.90;;;;;;5007974;28;19928;-78
2023/05/08 06:45:04;;;;;;;;;;;13.90;99.90;;;;;;5021975;28;20106;-79
2023/05/08 06:47:30;;;;;;;;;;;13.90;99.90;;;;;;5038141;28;19925;-79
2023/05/08 06:49:57;;;;;;;;;;;13.90;99.90;;;;;;5023769;28;19925;-79
2023/05/08 06:52:24;;;;;;;;;;;14.00;99.90;;;;;;5038926;28;20016;-79
2023/05/08 06:54:51;;;;;;;;;;;14.10;99.90;;;;;;5023332;28;19925;-79
2023/05/08 06:57:18;;;;;;;;;;;14.20;99.90;;;;;;5022843;28;19991;-79
2023/05/08 06:59:44;;;;;;;;;;;14.30;99.90;;;;;;5024191;28;20326;-79
2023/05/08 07:02:11;;;;;;;;;;;14.40;99.90;;;;;;5017853;28;20351;-79
2023/05/08 07:04:38;;;;;;;;;;;14.50;99.90;;;;;;5017278;28;19924;-78
2023/05/08 07:07:05;;;;;;;;;;;14.50;99.90;;;;;;5019080;28;19925;-79
2023/05/08 07:09:32;;;;;;;;;;;14.60;99.90;;;;;;5021756;28;19925;-79
2023/05/08 07:11:59;;;;;;;;;;;14.70;99.90;;;;;;5022856;28;19931;-79
2023/05/08 07:14:26;;;;;;;;;;;14.80;99.90;;;;;;5021807;28;20284;-79
2023/05/08 07:16:53;;;;;;;;;;;14.90;99.90;;;;;;5021451;28;19921;-79
2023/05/08 07:19:20;;;;;;;;;;;14.90;99.90;;;;;;5038102;28;19943;-79
2023/05/08 07:21:48;;;;;;;;;;;14.80;99.90;;;;;;5021819;28;20451;-79
2023/05/08 07:24:15;;;;;;;;;;;14.80;99.90;;;;;;5018976;28;19979;-78
2023/05/08 07:26:42;;;;;;;;;;;14.70;99.90;;;;;;5021791;28;20494;-78
2023/05/08 07:29:09;;;;;;;;;;;14.80;99.90;;;;;;5028247;28;19921;-78
2023/05/08 07:31:38;;;;;;;;;;;14.80;99.90;;;;;;5026768;28;20515;-78
2023/05/08 07:34:06;;;;;;;;;;;14.80;99.90;;;;;;5028416;28;19920;-78
2023/05/08 07:36:32;;;;;;;;;;;14.90;99.90;;;;;;5025687;28;19929;-78
2023/05/08 07:38:59;;;;;;;;;;;14.90;99.90;;;;;;5026091;28;20372;-79
2023/05/08 07:41:26;;;;;;;;;;;14.90;99.90;;;;;;5025074;28;20012;-78
2023/05/08 07:43:53;;;;;;;;;;;14.90;99.90;;;;;;5024885;28;19967;-78
2023/05/08 07:46:20;;;;;;;;;;;15.00;99.90;;;;;;5023735;28;20431;-79
2023/05/08 07:48:47;;;;;;;;;;;15.00;99.90;;;;;;5037212;28;19937;-79
2023/05/08 07:51:15;;;;;;;;;;;15.00;99.90;;;;;;5036755;28;19921;-79
2023/05/08 07:53:42;;;;;;;;;;;15.00;99.90;;;;;;5027934;28;19944;-80
2023/05/08 07:56:09;;;;;;;;;;;15.10;99.90;;;;;;5025564;28;20223;-79
2023/05/08 07:58:35;;;;;;;;;;;15.10;99.90;;;;;;5026135;28;19983;-79
2023/05/08 08:01:02;;;;;;;;;;;15.20;99.90;;;;;;5026957;28;20528;-79
2023/05/08 08:03:29;;;;;;;;;;;15.20;99.90;;;;;;5024419;28;19929;-80
2023/05/08 08:05:56;;;;;;;;;;;15.20;99.90;;;;;;5024714;28;20008;-79
2023/05/08 08:08:23;;;;;;;;;;;15.30;99.90;;;;;;5031361;28;20015;-79
2023/05/08 08:10:50;;;;;;;;;;;15.40;99.90;;;;;;5025413;28;20449;-79
2023/05/08 08:13:17;;;;;;;;;;;15.30;99.90;;;;;;5025610;28;19933;-79
2023/05/08 08:15:43;;;;;;;;;;;15.20;99.90;;;;;;5022141;28;19922;-79
2023/05/08 08:18:10;;;;;;;;;;;15.10;99.90;;;;;;5042097;28;19928;-79
2023/05/08 08:20:37;;;;;;;;;;;15.10;99.90;;;;;;5024936;28;19920;-79
2023/05/08 08:23:04;;;;;;;;;;;15.10;99.90;;;;;;5022350;28;19929;-79
2023/05/08 08:25:32;;;;;;;;;;;15.20;99.90;;;;;;5021778;28;20337;-78
2023/05/08 08:27:59;;;;;;;;;;;15.20;99.90;;;;;;5038183;28;19982;-79
2023/05/08 08:30:26;;;;;;;;;;;15.20;99.90;;;;;;5022169;28;19932;-79
2023/05/08 08:32:52;;;;;;;;;;;15.20;99.90;;;;;;5037159;28;19955;-79
2023/05/08 08:35:25;;;;;;;;;;;15.20;99.90;;;;;;5017040;28;20384;-78
2023/05/08 08:37:52;;;;;;;;;;;15.30;99.90;;;;;;5017132;28;19929;-80
2023/05/08 08:40:19;;;;;;;;;;;15.40;99.90;;;;;;5019431;28;19933;-79
2023/05/08 08:42:46;;;;;;;;;;;15.40;99.90;;;;;;5020707;28;20055;-81
2023/05/08 08:45:13;;;;;;;;;;;15.40;99.90;;;;;;5018188;28;19925;-78
2023/05/08 08:47:41;;;;;;;;;;;15.50;99.90;;;;;;5031105;28;19963;-78
2023/05/08 08:50:08;;;;;;;;;;;15.50;99.90;;;;;;5018228;28;20706;-78
2023/05/08 08:52:44;;;;;;;;;;;15.50;99.90;;;;;;5028894;28;19932;-78
2023/05/08 08:55:13;;;;;;;;;;;15.50;99.90;;;;;;5017552;28;19964;-79
2023/05/08 08:57:44;;;;;;;;;;;15.70;99.90;;;;;;5015231;28;19925;-78
2023/05/08 09:00:11;;;;;;;;;;;15.70;99.90;;;;;;5017494;28;19932;-78
2023/05/08 09:02:37;;;;;;;;;;;15.70;99.90;;;;;;5018803;28;19928;-78
2023/05/08 09:05:04;;;;;;;;;;;15.90;99.90;;;;;;5018130;28;20325;-79
2023/05/08 09:07:31;;;;;;;;;;;16.00;99.90;;;;;;5018907;28;19961;-79
2023/05/08 09:09:58;;;;;;;;;;;16.20;99.90;;;;;;5018393;28;20019;-79
2023/05/08 09:12:25;;;;;;;;;;;16.50;99.90;;;;;;5018608;28;19975;-79
2023/05/08 09:14:52;;;;;;;;;;;16.70;99.90;;;;;;5018467;28;20511;-80
2023/05/08 09:17:18;;;;;;;;;;;16.90;99.90;;;;;;5017850;28;19925;-79
2023/05/08 09:19:47;;;;;;;;;;;17.00;99.90;;;;;;5017068;28;20329;-79
2023/05/08 09:22:14;;;;;;;;;;;17.00;99.90;;;;;;5008998;28;20377;-79
2023/05/08 09:24:52;;;;;;;;;;;17.00;99.90;;;;;;5027215;28;20041;-78
2023/05/08 09:27:26;;;;;;;;;;;16.80;99.90;;;;;;5010792;28;19925;-79
2023/05/08 09:30:03;;;;;;;;;;;16.80;99.90;;;;;;5022915;28;20011;-79
2023/05/08 09:32:30;;;;;;;;;;;16.80;99.90;;;;;;5014662;28;20337;-79
2023/05/08 09:34:58;;;;;;;;;;;16.70;99.90;;;;;;5015938;28;19925;-78
2023/05/08 09:37:25;;;;;;;;;;;16.70;99.90;;;;;;5013568;28;19968;-79
2023/05/08 09:39:52;;;;;;;;;;;16.70;99.90;;;;;;5021226;28;19925;-79
2023/05/08 09:42:19;;;;;;;;;;;16.80;99.90;;;;;;5032261;28;19925;-80
2023/05/08 09:44:50;;;;;;;;;;;16.90;99.90;;;;;;5020913;28;19925;-79
2023/05/08 09:47:20;;;;;;;;;;;17.00;99.90;;;;;;5011018;28;19925;-80
2023/05/08 09:50:04;;;;;;;;;;;17.10;99.90;;;;;;5016519;28;19971;-79
2023/05/08 09:52:31;;;;;;;;;;;17.10;99.90;;;;;;5010694;28;20790;-80
2023/05/08 09:55:05;;;;;;;;;;;17.10;99.90;;;;;;5012489;28;20604;-80
2023/05/08 09:57:35;;;;;;;;;;;17.10;99.90;;;;;;5016585;28;20023;-79
2023/05/08 10:00:02;;;;;;;;;;;17.00;99.90;;;;;;5015123;28;19968;-79
2023/05/08 10:02:29;;;;;;;;;;;16.90;99.90;;;;;;5014385;28;20016;-79
2023/05/08 10:04:56;;;;;;;;;;;16.90;99.90;;;;;;5032743;28;19925;-79
2023/05/08 10:07:29;;;;;;;;;;;16.90;99.90;;;;;;5017194;28;20019;-79
2023/05/08 10:09:57;;;;;;;;;;;16.90;99.90;;;;;;5015230;28;19933;-79
2023/05/08 10:12:24;;;;;;;;;;;16.80;99.90;;;;;;5017160;28;19987;-79
2023/05/08 10:14:51;;;;;;;;;;;16.80;99.90;;;;;;5015283;28;20242;-80
2023/05/08 10:17:20;;;;;;;;;;;16.90;99.90;;;;;;5044315;28;20645;-80
2023/05/08 10:19:47;;;;;;;;;;;17.00;99.90;;;;;;5014516;28;20046;-80
2023/05/08 10:22:14;;;;;;;;;;;17.10;99.90;;;;;;5017898;28;19921;-80
2023/05/08 10:24:40;;;;;;;;;;;17.20;99.90;;;;;;5033422;28;20577;-79
2023/05/08 10:27:16;;;;;;;;;;;17.20;99.90;;;;;;5017059;28;19978;-80
2023/05/08 10:29:43;;;;;;;;;;;17.10;99.90;;;;;;5017280;28;19944;-79
2023/05/08 10:32:10;;;;;;;;;;;17.10;99.90;;;;;;5016765;28;20428;-79
2023/05/08 10:34:38;;;;;;;;;;;17.10;99.90;;;;;;5033147;28;19929;-79
2023/05/08 10:37:08;;;;;;;;;;;17.00;99.90;;;;;;5016727;28;19975;-79
2023/05/08 10:39:35;;;;;;;;;;;17.00;99.90;;;;;;5014054;28;19937;-78
2023/05/08 10:42:02;;;;;;;;;;;17.10;99.90;;;;;;5013567;28;20516;-79
2023/05/08 10:44:29;;;;;;;;;;;17.20;99.90;;;;;;5013467;28;19928;-79
2023/05/08 10:47:22;;;;;;;;;;;17.30;99.90;;;;;;5016568;28;20301;-79
2023/05/08 10:50:01;;;;;;;;;;;17.50;99.90;;;;;;5016178;28;19975;-79
2023/05/08 10:52:51;;;;;;;;;;;17.80;99.90;;;;;;5016158;28;20014;-79
2023/05/08 10:55:19;;;;;;;;;;;18.20;99.90;;;;;;5015972;28;20019;-79
2023/05/08 10:58:05;;;;;;;;;;;18.20;99.90;;;;;;5014347;28;20424;-79
2023/05/08 11:00:52;;;;;;;;;;;18.30;99.90;;;;;;5005623;28;19949;-78
2023/05/08 11:03:19;;;;;;;;;;;18.50;99.90;;;;;;5013481;28;19968;-79
2023/05/08 11:05:57;;;;;;;;;;;18.60;99.90;;;;;;5014932;28;19925;-79
2023/05/08 11:08:26;;;;;;;;;;;18.60;99.90;;;;;;5017016;28;19979;-79
2023/05/08 11:11:13;;;;;;;;;;;18.70;99.90;;;;;;5016644;28;20048;-79
2023/05/08 11:13:41;;;;;;;;;;;18.70;99.90;;;;;;5026459;28;20687;-79
2023/05/08 11:16:11;;;;;;;;;;;18.60;99.90;;;;;;5014191;28;20024;-79
2023/05/08 11:18:39;;;;;;;;;;;18.60;99.90;;;;;;5012637;28;19929;-79
2023/05/08 11:21:19;;;;;;;;;;;18.60;99.90;;;;;;5012645;28;19925;-79
2023/05/08 11:23:46;;;;;;;;;;;18.50;99.90;;;;;;5014445;28;20295;-80
2023/05/08 11:26:12;;;;;;;;;;;18.50;99.90;;;;;;5013859;28;19925;-79
2023/05/08 11:28:40;;;;;;;;;;;18.40;99.90;;;;;;5032883;28;20382;-80
2023/05/08 11:31:07;;;;;;;;;;;18.30;99.90;;;;;;5017033;28;19940;-80
2023/05/08 11:33:36;;;;;;;;;;;18.20;99.90;;;;;;5015320;28;20032;-79
2023/05/08 11:36:13;;;;;;;;;;;18.20;99.90;;;;;;5016389;28;19924;-80
2023/05/08 11:38:40;;;;;;;;;;;18.10;99.90;;;;;;5032074;28;19925;-79
2023/05/08 11:41:07;;;;;;;;;;;18.00;99.90;;;;;;5016468;28;19925;-79
2023/05/08 11:43:44;;;;;;;;;;;17.90;99.90;;;;;;5016253;28;20442;-79
2023/05/08 11:46:14;;;;;;;;;;;18.00;99.90;;;;;;5017860;28;19921;-79
2023/05/08 11:48:41;;;;;;;;;;;17.90;99.90;;;;;;5016508;28;19928;-79
2023/05/08 11:51:08;;;;;;;;;;;17.80;99.90;;;;;;5052697;28;19948;-79
2023/05/08 11:53:35;;;;;;;;;;;17.70;99.90;;;;;;5027770;28;19925;-79
2023/05/08 11:56:02;;;;;;;;;;;17.60;99.90;;;;;;5012418;28;19922;-79
2023/05/08 11:58:30;;;;;;;;;;;17.40;99.90;;;;;;5012160;28;19975;-80
2023/05/08 12:00:56;;;;;;;;;;;17.30;99.90;;;;;;5013475;28;19925;-79
2023/05/08 12:03:26;;;;;;;;;;;17.10;99.90;;;;;;5015153;28;19939;-79
2023/05/08 12:05:56;;;;;;;;;;;17.00;99.90;;;;;;5019962;28;19941;-79
2023/05/08 12:08:23;;;;;;;;;;;17.00;99.90;;;;;;5052255;28;20337;-79
2023/05/08 12:10:54;;;;;;;;;;;17.00;99.90;;;;;;5026145;28;19933;-79
2023/05/08 12:13:20;;;;;;;;;;;17.10;99.90;;;;;;5013750;28;19929;-79
2023/05/08 12:15:48;;;;;;;;;;;17.10;99.90;;;;;;5007872;28;19943;-78
2023/05/08 12:18:15;;;;;;;;;;;17.00;99.90;;;;;;4994368;28;19924;-78
2023/05/08 12:20:42;;;;;;;;;;;17.00;99.90;;;;;;5018878;28;20301;-77
2023/05/08 12:23:09;;;;;;;;;;;17.00;99.90;;;;;;5016341;28;19993;-78
2023/05/08 12:25:39;;;;;;;;;;;17.10;99.90;;;;;;5016608;28;19935;-78
2023/05/08 12:28:06;;;;;;;;;;;17.20;99.90;;;;;;5001635;28;19932;-78
2023/05/08 12:30:32;;;;;;;;;;;17.20;99.90;;;;;;4651640;28;10000113;-78
2023/05/08 12:32:59;;;;;;;;;;;17.30;99.90;;;;;;4999199;28;19925;-77
2023/05/08 12:35:27;;;;;;;;;;;17.50;99.90;;;;;;5015265;28;20474;-77
2023/05/08 12:37:54;;;;;;;;;;;17.50;99.90;;;;;;5031564;28;20625;-78
2023/05/08 12:40:23;;;;;;;;;;;17.60;99.90;;;;;;5013526;28;20421;-78
2023/05/08 12:42:49;;;;;;;;;;;17.50;99.90;;;;;;5003270;28;20047;-78
2023/05/08 12:45:16;;;;;;;;;;;17.40;99.90;;;;;;5033643;28;19935;-79
2023/05/08 12:47:50;;;;;;;;;;;17.20;99.90;;;;;;5010172;28;19924;-78
2023/05/08 12:50:19;;;;;;;;;;;17.00;99.90;;;;;;5012489;28;20287;-78
2023/05/08 12:52:46;;;;;;;;;;;16.80;99.90;;;;;;5012621;28;19987;-78
2023/05/08 12:55:22;;;;;;;;;;;16.70;99.90;;;;;;5010363;28;19929;-78
2023/05/08 12:57:50;;;;;;;;;;;16.80;99.90;;;;;;5014688;28;19932;-77
2023/05/08 13:00:17;;;;;;;;;;;16.80;99.90;;;;;;5016659;28;19925;-78
2023/05/08 13:02:51;;;;;;;;;;;17.00;99.90;;;;;;5014804;28;20405;-78
2023/05/08 13:05:19;;;;;;;;;;;17.30;99.90;;;;;;5012705;28;19968;-77
2023/05/08 13:07:46;;;;;;;;;;;17.50;99.90;;;;;;5005230;28;20780;-77
2023/05/08 13:10:12;;;;;;;;;;;17.70;99.90;;;;;;5029946;28;20296;-77
2023/05/08 13:12:40;;;;;;;;;;;17.70;99.90;;;;;;4998362;28;19925;-77
2023/05/08 13:15:07;;;;;;;;;;;17.60;99.90;;;;;;5029151;28;20393;-77
2023/05/08 13:17:34;;;;;;;;;;;17.60;99.90;;;;;;5027039;28;19925;-77
2023/05/08 13:20:02;;;;;;;;;;;17.60;99.90;;;;;;5013264;28;20027;-77
2023/05/08 13:22:31;;;;;;;;;;;17.60;99.90;;;;;;5000103;28;19932;-77
2023/05/08 13:24:58;;;;;;;;;;;17.70;99.90;;;;;;5014499;28;20320;-77
2023/05/08 13:27:25;;;;;;;;;;;17.90;99.90;;;;;;5014693;28;19925;-77
2023/05/08 13:29:52;;;;;;;;;;;18.40;99.90;;;;;;5015038;28;19933;-77
2023/05/08 13:32:19;;;;;;;;;;;18.70;99.90;;;;;;5013577;28;19925;-77
2023/05/08 13:34:46;;;;;;;;;;;18.70;99.90;;;;;;5015853;28;19924;-77
2023/05/08 13:37:17;;;;;;;;;;;18.40;99.90;;;;;;5002909;28;19936;-77
2023/05/08 13:39:48;;;;;;;;;;;18.30;99.90;;;;;;5015394;28;19921;-77
2023/05/08 13:42:15;;;;;;;;;;;18.40;99.90;;;;;;5015536;28;19936;-77
2023/05/08 13:44:42;;;;;;;;;;;18.40;99.90;;;;;;4998692;28;19933;-78
2023/05/08 13:47:09;;;;;;;;;;;18.60;99.90;;;;;;5012333;28;20019;-78
2023/05/08 13:49:36;;;;;;;;;;;18.90;99.90;;;;;;5012336;28;19968;-77
2023/05/08 13:52:03;;;;;;;;;;;19.20;99.90;;;;;;5023236;28;19936;-78
2023/05/08 13:54:30;;;;;;;;;;;19.90;99.90;;;;;;5006324;28;19925;-78
2023/05/08 13:56:56;;;;;;;;;;;20.00;99.90;;;;;;5004425;28;20206;-78
2023/05/08 13:59:23;;;;;;;;;;;19.90;99.90;;;;;;4995383;28;19944;-78
2023/05/08 14:01:50;;;;;;;;;;;19.90;99.90;;;;;;5007339;28;20270;-78
2023/05/08 14:04:20;;;;;;;;;;;19.30;99.90;;;;;;5012216;28;19968;-78
2023/05/08 14:06:48;;;;;;;;;;;19.00;99.90;;;;;;5009348;28;19936;-78
2023/05/08 14:09:15;;;;;;;;;;;18.70;99.90;;;;;;5011759;28;19925;-77
2023/05/08 14:11:45;;;;;;;;;;;18.60;99.90;;;;;;5014835;28;19921;-78
2023/05/08 14:14:12;;;;;;;;;;;18.40;99.90;;;;;;5012176;28;19987;-77
2023/05/08 14:16:38;;;;;;;;;;;18.40;99.90;;;;;;5031104;28;19932;-77
2023/05/08 14:19:05;;;;;;;;;;;18.40;99.90;;;;;;5014687;28;19940;-78
2023/05/08 14:21:33;;;;;;;;;;;18.70;99.90;;;;;;5016149;28;20352;-78
2023/05/08 14:24:00;;;;;;;;;;;19.10;99.90;;;;;;5013558;28;19936;-78